Flight Track Log - Related Links

Times and Time Zones

All times are in EDT time to prevent confusion due to time zone crossing. See the RAX1073 flight status page for this flight to view local times or setup timezone preferences in your user account.

Time Position Orientation Groundspeed Altitude Reporting Facility
EDT Latitude Longitude Course Direction KTS MPH feet Rate Location/Type
Mon 02:31:46 PM 26.0769 -80.2292 291° West 184 212 4,500  Level Miami Center
Mon 02:32:46 PM 26.0947 -80.2806 291° West 200 230 7,700 2,700 Climbing Miami Center
Mon 02:33:46 PM 26.1222 -80.3508 294° West 226 260 9,900 2,500 Climbing Miami Center
Mon 02:34:46 PM 26.1558 -80.4306 295° West 258 297 12,700 2,967 Climbing Miami Center
Mon 02:36:00 PM 26.2339 -80.5413 309° West  Level Estimated
Mon 02:36:46 PM 26.2353 -80.5881 309° West 286 329 18,800  Level Miami Center
Mon 02:37:46 PM 26.3133 -80.6461 326° Northwest 298 343 21,100 1,733 Climbing Miami Center
Mon 02:39:00 PM 26.3912 -80.7571 326° Northwest  Level Estimated
Mon 02:39:46 PM 26.4833 -80.7700 326° Northwest 370 426 24,000  Level Miami Center
Mon 02:40:46 PM 26.5800 -80.8289 331° Northwest 391 450 25,700 1,800 Climbing Miami Center
Mon 02:41:46 PM 26.6744 -80.8856 332° Northwest 391 450 27,600 1,900 Climbing Miami Center
Mon 02:42:46 PM 26.7606 -80.9442 329° Northwest 377 434 29,500 1,700 Climbing Miami Center
Mon 02:43:46 PM 26.8361 -81.0050 324° Northwest 371 427 31,000 1,400 Climbing Miami Center
Mon 02:45:00 PM 26.9445 -81.0755 330° Northwest  Level FlightAware Approximate
Mon 02:45:46 PM 27.0142 -81.1281 330° Northwest 364 419 33,700  Level Miami Center
Mon 02:46:46 PM 27.1019 -81.1919 327° Northwest 364 419 34,900 1,133 Climbing Miami Center
Mon 02:48:00 PM 27.2117 -81.2600 331° Northwest  Level FlightAware Approximate
Mon 02:48:46 PM 27.2800 -81.3106 331° Northwest 364 419 37,100  Level Miami Center
Mon 02:50:00 PM 27.3911 -81.3759 332° Northwest  Level FlightAware Approximate
Mon 02:50:46 PM 27.4578 -81.4275 332° Northwest 364 419 38,600  Level Miami Center
Mon 02:52:46 PM 27.6375 -81.5542 328° Northwest 376 433 39,700 222 Climbing Miami Center
Mon 02:54:00 PM 27.7478 -81.6214 332° Northwest  Level FlightAware Approximate
Mon 02:58:26 PM 28.1694 -81.9461 325° Northwest 413 475 40,300  Level Jacksonville Center
Mon 02:59:26 PM 28.2700 -82.0133 330° Northwest 418 481 40,800 500 Climbing Jacksonville Center
Mon 03:00:26 PM 28.3686 -82.0786 330° Northwest 418 481 41,300 500 Climbing Jacksonville Center
Mon 03:01:00 PM 28.3516 -82.0452 325° Northwest  Level FlightAware Approximate
Mon 03:01:26 PM 28.4650 -82.1439 329° Northwest 406 467 41,800  Level Jacksonville Center
Mon 03:02:00 PM 28.4352 -82.1109 325° Northwest  Level FlightAware Approximate
Mon 03:03:00 PM 28.5693 -82.2789 311° West  Level FlightAware Approximate
Mon 03:03:00 PM 28.5187 -82.1768 325° Northwest  Level FlightAware Approximate
Mon 03:04:26 PM 28.6686 -82.4122 312° West 360 414 42,900  Level Jacksonville Center
Mon 03:06:00 PM 28.7493 -82.5686 301° West  Level Estimated
Mon 03:06:26 PM 28.7839 -82.5750 301° West 350 403 43,000  Level Jacksonville Center
Mon 03:07:26 PM 28.8489 -82.6628 310° West 355 409 43,000  Level Jacksonville Center
Mon 03:08:26 PM 28.9178 -82.7478 313° West 355 409 43,000  Level Jacksonville Center
Mon 03:09:26 PM 28.9847 -82.8356 311° West 361 415 43,000  Level Jacksonville Center
Mon 03:10:00 PM 29.0431 -82.8838 312° West  Level FlightAware Approximate
Mon 03:10:26 PM 29.0514 -82.9258 310° West 361 415 43,000  Level Jacksonville Center
Mon 03:11:26 PM 29.1183 -83.0139 311° West 366 421 43,000  Level Jacksonville Center
Mon 03:13:00 PM 29.2269 -83.1202 312° West  Level FlightAware Approximate
Mon 03:14:26 PM 29.3203 -83.2808 312° West 366 421 43,000  Level Jacksonville Center
Mon 03:16:00 PM 29.4275 -83.4102 314° West  Level FlightAware Approximate
Mon 03:17:26 PM 29.5278 -83.5467 314° West 377 434 43,000  Level Jacksonville Center
Mon 03:18:26 PM 29.5983 -83.6353 312° West 382 440 43,000  Level Jacksonville Center
Mon 03:20:00 PM 29.7095 -83.7614 315° West  Level FlightAware Approximate
Mon 03:20:00 PM 29.6889 -83.7168 312° West  Level FlightAware Approximate
Mon 03:20:26 PM 29.7392 -83.8136 315° West 382 440 43,000  Level Jacksonville Center
Mon 03:21:26 PM 29.8075 -83.9003 312° West 382 440 43,000  Level Jacksonville Center
Mon 03:22:26 PM 29.8672 -83.9967 306° West 377 434 43,000  Level Jacksonville Center
Mon 03:24:45 PM 29.9889 -84.2419 300° West 367 422 43,000  Level Houston Center
Mon 03:28:00 PM 30.0691 -84.4410 293° West  Level FlightAware Approximate
Mon 03:28:26 PM 30.1567 -84.6197 293° West 362 417 43,000  Level Jacksonville Center
Mon 03:30:26 PM 30.2456 -84.8306 296° West 367 422 43,000  Level Jacksonville Center
Mon 03:32:26 PM 30.3381 -85.0419 297° West 362 417 43,000  Level Jacksonville Center
Mon 03:34:03 PM 30.4119 -85.2086 297° West 365 420 43,000  Level Houston Center
Mon 03:34:26 PM 30.4306 -85.2486 298° West 362 417 43,000  Level Jacksonville Center
Mon 03:35:26 PM 30.4786 -85.3536 298° West 362 417 43,000  Level Jacksonville Center
Mon 03:36:26 PM 30.5225 -85.4583 296° West 362 417 43,000  Level Jacksonville Center
Mon 03:37:26 PM 30.5664 -85.5608 296° West 362 417 43,000  Level Jacksonville Center
Mon 03:38:26 PM 30.6142 -85.6683 297° West 362 417 43,000  Level Jacksonville Center
Mon 03:39:26 PM 30.6578 -85.7711 296° West 362 417 43,000  Level Jacksonville Center
Mon 03:40:26 PM 30.7014 -85.8786 295° West 362 417 43,000  Level Jacksonville Center
Mon 03:42:20 PM 30.7881 -86.0853 296° West 365 420 43,000  Level Houston Center
Mon 03:43:26 PM 30.8353 -86.1950 297° West 362 417 43,000  Level Jacksonville Center
Mon 03:44:26 PM 30.8806 -86.3006 297° West 362 417 43,000  Level Jacksonville Center
Mon 03:45:26 PM 30.9236 -86.4086 295° West 362 417 43,000  Level Jacksonville Center
Mon 03:47:26 PM 31.0178 -86.6183 298° West 362 417 43,000  Level Jacksonville Center
Mon 03:49:26 PM 31.1069 -86.8497 294° West 373 429 43,000  Level Jacksonville Center
Mon 03:51:39 PM 31.1975 -87.0761 295° West 368 423 43,000  Level Houston Center
Mon 03:52:41 PM 31.2417 -87.1819 296° West 364 419 43,000  Level Houston Center
Mon 03:53:44 PM 31.2875 -87.2875 297° West 365 420 43,000  Level Houston Center
Mon 03:54:10 PM 31.3183 -87.3494 300° West 369 425 43,000  Level Atlanta Center
Mon 03:55:10 PM 31.3633 -87.4581 296° West 369 425 43,000  Level Atlanta Center
Mon 03:55:48 PM 31.3867 -87.5225 293° West 369 425 43,000  Level Houston Center
Mon 03:56:50 PM 31.4336 -87.6292 297° West 371 427 43,000  Level Houston Center
Mon 03:57:10 PM 31.4553 -87.6731 300° West 369 425 43,000  Level Atlanta Center
Mon 03:58:10 PM 31.5022 -87.7797 297° West 369 425 43,000 -474 Level Atlanta Center
Mon 04:00:58 PM 31.6278 -88.0747 297° West 368 423 41,200 -861 Descending Houston Center
Mon 04:01:32 PM 31.6544 -88.1464 294° West 374 430 40,100 -1,925 Descending Memphis Center
Mon 04:03:00 PM 31.6980 -88.3090 287° West  Level FlightAware Approximate
Mon 04:04:05 PM 31.7539 -88.4211 287° West 370 426 35,200  Level Houston Center
Mon 04:04:32 PM 31.7789 -88.4881 294° West 379 436 34,100 -2,000 Descending Memphis Center
Mon 04:05:32 PM 31.8139 -88.5875 293° West 356 410 32,300 -1,850 Descending Memphis Center
Mon 04:06:32 PM 31.8444 -88.6894 289° West 338 389 30,400 -2,300 Descending Memphis Center
Mon 04:07:32 PM 31.8564 -88.7969 277° West 333 383 27,700 -2,950 Descending Memphis Center
Mon 04:08:32 PM 31.8578 -88.9144 271° West 340 391 24,500 -3,033 Descending Memphis Center
Mon 04:10:32 PM 31.8997 -89.1314 283° West 349 402 18,600 -2,700 Descending Memphis Center
Mon 04:12:32 PM 31.9744 -89.3189 295° West 329 379 13,700 -2,267 Descending Memphis Center
Mon 04:13:32 PM 32.0128 -89.4067 297° West 309 356 11,800 -1,800 Descending Memphis Center
Mon 04:14:32 PM 32.0467 -89.4922 295° West 295 339 10,100 -1,833 Descending Memphis Center
Mon 04:16:00 PM 32.1197 -89.6410 295° West  Level FlightAware Approximate
Mon 04:16:32 PM 32.1083 -89.6339 295° West 255 293 6,300  Level Memphis Center
Mon 04:18:00 PM 32.1699 -89.7922 293° West  Level FlightAware Approximate
Mon 04:18:32 PM 32.1675 -89.7658 293° West 237 273 2,900  Level Memphis Center
Mon 04:19:32 PM 32.1928 -89.8319 294° West 232 267 3,000 100 Climbing Memphis Center
Mon 04:20:32 PM 32.2181 -89.9006 294° West 232 267 3,100 -288 Climbing Memphis Center
Mon 04:22:00 PM 32.2708 -90.0604 295° West  Level FlightAware Approximate
Mon 04:27:32 PM 32.3294 -90.2394 295° West 135 155 700  Level Memphis Center
Mon 04:29:00 PM 32.3333 -90.2167 295° West  Level FlightAware Approximate
Mon 04:29:00 PM 32.3333 -90.2167 295° West  Level FlightAware Approximate
Mon 04:30:00 PM 32.3348 -90.2225 295° West  Level Estimated
Mon 04:31:00 PM 32.3333 -90.2167 295° West  Level FlightAware Approximate
Mon 04:32:00 PM 32.3348 -90.2225 295° West  Level Estimated
Mon 04:36:00 PM 32.3348 -90.2225 295° West  Level Estimated
Mon 04:37:00 PM 32.3333 -90.2167 295° West  Level FlightAware Approximate
Mon 04:38:00 PM 32.3348 -90.2225 295° West  Level Estimated
Mon 04:39:00 PM 32.3333 -90.2167 295° West  Level FlightAware Approximate

Login

Don't have an account? Register now (free) for customized features, flight alerts, and more!